createdAt,value
2023-03-20T00:00:13.416Z,940.73
2023-03-20T00:01:13.478Z,940.75
2023-03-20T00:02:13.396Z,940.76
2023-03-20T00:03:13.378Z,940.80
2023-03-20T00:04:13.474Z,940.74
2023-03-20T00:05:13.364Z,940.78
2023-03-20T00:06:13.398Z,940.79
2023-03-20T00:07:13.346Z,940.78
2023-03-20T00:08:13.429Z,940.74
2023-03-20T00:09:13.342Z,940.75
2023-03-20T00:10:13.306Z,940.77
2023-03-20T00:11:13.331Z,940.77
2023-03-20T00:12:13.286Z,940.78
2023-03-20T00:13:13.316Z,940.78
2023-03-20T00:14:13.308Z,940.74
2023-03-20T00:15:13.278Z,940.77
2023-03-20T00:16:13.291Z,940.78
2023-03-20T00:17:17.921Z,940.72
2023-03-20T00:18:13.234Z,940.77
2023-03-20T00:19:13.721Z,940.71
2023-03-20T00:20:13.203Z,940.75
2023-03-20T00:21:13.234Z,940.73
2023-03-20T00:22:13.203Z,940.77
2023-03-20T00:23:13.168Z,940.74
2023-03-20T00:24:13.208Z,940.72
2023-03-20T00:25:13.160Z,940.74
2023-03-20T00:26:13.133Z,940.77
2023-03-20T00:27:13.119Z,940.72
2023-03-20T00:28:13.137Z,940.71
2023-03-20T00:29:13.130Z,940.77
2023-03-20T00:30:13.092Z,940.82
2023-03-20T00:31:13.137Z,940.76
2023-03-20T00:32:13.113Z,940.75
2023-03-20T00:33:13.187Z,940.78
2023-03-20T00:34:13.057Z,940.80
2023-03-20T00:35:13.051Z,940.79
2023-03-20T00:36:13.161Z,940.80
2023-03-20T00:37:13.129Z,940.78
2023-03-20T00:38:13.015Z,940.75
2023-03-20T00:39:13.006Z,940.81
2023-03-20T00:40:12.998Z,940.73
2023-03-20T00:41:12.972Z,940.76
2023-03-20T00:42:12.980Z,940.76
2023-03-20T00:43:12.938Z,940.76
2023-03-20T00:44:12.942Z,940.75
2023-03-20T00:45:12.924Z,940.81
2023-03-20T00:46:13.178Z,940.80
2023-03-20T00:47:12.907Z,940.80
2023-03-20T00:48:12.897Z,940.83
2023-03-20T00:49:12.900Z,940.88
2023-03-20T00:50:12.877Z,940.85
2023-03-20T00:51:12.879Z,940.82
2023-03-20T00:52:12.926Z,940.85
2023-03-20T00:53:12.876Z,940.86
2023-03-20T00:54:12.849Z,940.85
2023-03-20T00:55:12.855Z,940.87
2023-03-20T00:56:12.831Z,940.86
2023-03-20T00:57:12.790Z,940.83
2023-03-20T00:58:12.831Z,940.86
2023-03-20T00:59:12.787Z,940.84
2023-03-20T01:00:12.803Z,940.82
2023-03-20T01:01:12.794Z,940.83
2023-03-20T01:02:12.764Z,940.80
2023-03-20T01:03:12.801Z,940.87
2023-03-20T01:04:12.748Z,940.79
2023-03-20T01:05:12.713Z,940.82
2023-03-20T01:06:12.696Z,940.82
2023-03-20T01:07:12.703Z,940.82
2023-03-20T01:08:12.719Z,940.78
2023-03-20T01:09:12.674Z,940.77
2023-03-20T01:10:12.676Z,940.84
2023-03-20T01:11:12.646Z,940.79
2023-03-20T01:12:12.620Z,940.79
2023-03-20T01:13:12.632Z,940.78
2023-03-20T01:14:12.665Z,940.75
2023-03-20T01:15:12.616Z,940.79
2023-03-20T01:16:12.622Z,940.79
2023-03-20T01:17:33.581Z,940.79
2023-03-20T01:18:12.562Z,940.80
2023-03-20T01:19:12.564Z,940.80
2023-03-20T01:20:12.577Z,940.75
2023-03-20T01:21:12.557Z,940.78
2023-03-20T01:22:12.571Z,940.77
2023-03-20T01:23:12.572Z,940.75
2023-03-20T01:24:12.529Z,940.74
2023-03-20T01:25:12.493Z,940.76
2023-03-20T01:26:12.534Z,940.74
2023-03-20T01:27:12.492Z,940.74
2023-03-20T01:28:12.567Z,940.73
2023-03-20T01:29:12.523Z,940.75
2023-03-20T01:30:12.435Z,940.78
2023-03-20T01:31:12.435Z,940.83
2023-03-20T01:32:12.411Z,940.80
2023-03-20T01:33:12.550Z,940.77
2023-03-20T01:34:12.390Z,940.76
2023-03-20T01:35:12.430Z,940.78
2023-03-20T01:36:12.406Z,940.76
2023-03-20T01:37:12.371Z,940.81
2023-03-20T01:38:12.421Z,940.83
2023-03-20T01:39:12.333Z,940.77
2023-03-20T01:40:12.328Z,940.76
2023-03-20T01:41:12.356Z,940.80
2023-03-20T01:42:12.332Z,940.78
2023-03-20T01:43:12.403Z,940.77
2023-03-20T01:44:12.313Z,940.76
2023-03-20T01:45:12.338Z,940.77
2023-03-20T01:46:12.354Z,940.79
2023-03-20T01:47:12.256Z,940.78
2023-03-20T01:48:12.250Z,940.74
2023-03-20T01:49:12.264Z,940.79
2023-03-20T01:50:12.282Z,940.76
2023-03-20T01:51:12.209Z,940.80
2023-03-20T01:52:12.198Z,940.77
2023-03-20T01:53:12.241Z,940.75
2023-03-20T01:54:12.240Z,940.79
2023-03-20T01:55:12.186Z,940.69
2023-03-20T01:56:12.176Z,940.74
2023-03-20T01:57:12.176Z,940.73
2023-03-20T01:58:12.165Z,940.80
2023-03-20T01:59:12.160Z,940.74
2023-03-20T02:00:12.202Z,940.72
2023-03-20T02:01:12.190Z,940.69
2023-03-20T02:02:12.097Z,940.70
2023-03-20T02:03:12.092Z,940.71
2023-03-20T02:04:12.095Z,940.70
2023-03-20T02:05:12.160Z,940.70
2023-03-20T02:06:12.068Z,940.66
2023-03-20T02:07:12.044Z,940.71
2023-03-20T02:08:12.058Z,940.70
2023-03-20T02:09:12.029Z,940.71
2023-03-20T02:10:12.060Z,940.71
2023-03-20T02:11:12.001Z,940.72
2023-03-20T02:12:12.006Z,940.72
2023-03-20T02:13:11.980Z,940.69
2023-03-20T02:14:12.004Z,940.68
2023-03-20T02:15:11.984Z,940.71
2023-03-20T02:16:12.059Z,940.66
2023-03-20T02:17:11.945Z,940.68
2023-03-20T02:18:11.928Z,940.66
2023-03-20T02:19:11.945Z,940.60
2023-03-20T02:20:11.941Z,940.68
2023-03-20T02:21:11.902Z,940.66
2023-03-20T02:22:11.884Z,940.71
2023-03-20T02:23:11.861Z,940.67
2023-03-20T02:24:11.902Z,940.73
2023-03-20T02:25:11.852Z,940.67
2023-03-20T02:26:11.844Z,940.69
2023-03-20T02:27:11.831Z,940.71
2023-03-20T02:28:11.828Z,940.71
2023-03-20T02:29:11.811Z,940.73
2023-03-20T02:30:11.839Z,940.74
2023-03-20T02:31:11.869Z,940.72
2023-03-20T02:32:11.812Z,940.71
2023-03-20T02:33:11.897Z,940.70
2023-03-20T02:34:11.982Z,940.77
2023-03-20T02:35:11.761Z,940.76
2023-03-20T02:36:11.845Z,940.75
2023-03-20T02:37:11.805Z,940.78
2023-03-20T02:38:11.723Z,940.77
2023-03-20T02:39:11.725Z,940.76
2023-03-20T02:40:11.715Z,940.80
2023-03-20T02:41:11.780Z,940.73
2023-03-20T02:42:11.670Z,940.75
2023-03-20T02:43:11.692Z,940.77
2023-03-20T02:44:11.655Z,940.78
2023-03-20T02:45:11.636Z,940.77
2023-03-20T02:46:11.777Z,940.81
2023-03-20T02:47:14.915Z,940.77
2023-03-20T02:48:11.612Z,940.78
2023-03-20T02:49:11.600Z,940.80
2023-03-20T02:50:11.605Z,940.77
2023-03-20T02:51:11.639Z,940.77
2023-03-20T02:52:11.568Z,940.73
2023-03-20T02:53:11.558Z,940.80
2023-03-20T02:54:11.543Z,940.76
2023-03-20T02:55:11.538Z,940.78
2023-03-20T02:56:11.564Z,940.77
2023-03-20T02:57:11.564Z,940.78
2023-03-20T02:58:11.512Z,940.77
2023-03-20T02:59:11.488Z,940.77
2023-03-20T03:00:11.489Z,940.77
2023-03-20T03:01:11.530Z,940.79
2023-03-20T03:02:11.481Z,940.79
2023-03-20T03:03:11.477Z,940.76
2023-03-20T03:04:11.518Z,940.77
2023-03-20T03:05:11.433Z,940.78
2023-03-20T03:06:11.431Z,940.82
2023-03-20T03:07:11.453Z,940.82
2023-03-20T03:08:11.399Z,940.80
2023-03-20T03:09:19.055Z,940.84
2023-03-20T03:10:11.412Z,940.83
2023-03-20T03:11:11.377Z,940.89
2023-03-20T03:12:11.386Z,940.89
2023-03-20T03:13:11.350Z,940.88
2023-03-20T03:14:11.343Z,940.88
2023-03-20T03:15:11.402Z,940.89
2023-03-20T03:16:11.481Z,940.93
2023-03-20T03:17:11.312Z,940.98
2023-03-20T03:18:11.317Z,940.96
2023-03-20T03:19:11.353Z,941.01
2023-03-20T03:20:11.322Z,941.01
2023-03-20T03:21:11.255Z,941.04
2023-03-20T03:22:11.270Z,941.03
2023-03-20T03:23:11.245Z,941.08
2023-03-20T03:24:11.257Z,941.10
2023-03-20T03:25:11.221Z,941.10
2023-03-20T03:26:11.253Z,941.16
2023-03-20T03:27:11.244Z,941.16
2023-03-20T03:28:11.188Z,941.11
2023-03-20T03:29:11.226Z,941.12
2023-03-20T03:30:11.167Z,941.12
2023-03-20T03:31:11.171Z,941.14
2023-03-20T03:32:11.163Z,941.12
2023-03-20T03:33:11.312Z,941.16
2023-03-20T03:34:11.142Z,941.18
2023-03-20T03:35:11.123Z,941.18
2023-03-20T03:36:11.120Z,941.18
2023-03-20T03:37:11.096Z,941.19
2023-03-20T03:38:11.165Z,941.18
2023-03-20T03:39:11.071Z,941.23
2023-03-20T03:40:11.074Z,941.18
2023-03-20T03:41:11.054Z,941.21
2023-03-20T03:42:11.049Z,941.21
2023-03-20T03:43:11.133Z,941.18
2023-03-20T03:44:11.064Z,941.17
2023-03-20T03:45:11.007Z,941.22
2023-03-20T03:46:11.038Z,941.24
2023-03-20T03:47:11.006Z,941.23
2023-03-20T03:48:10.976Z,941.24
2023-03-20T03:49:10.972Z,941.25
2023-03-20T03:50:11.004Z,941.27
2023-03-20T03:51:10.949Z,941.26
2023-03-20T03:52:10.945Z,941.24
2023-03-20T03:53:10.966Z,941.25
2023-03-20T03:54:11.240Z,941.23
2023-03-20T03:55:10.907Z,941.24
2023-03-20T03:56:11.003Z,941.26
2023-03-20T03:57:10.907Z,941.30
2023-03-20T03:58:10.869Z,941.29
2023-03-20T03:59:10.884Z,941.28
2023-03-20T04:00:10.873Z,941.26
2023-03-20T04:01:10.844Z,941.30
2023-03-20T04:02:10.930Z,941.26
2023-03-20T04:03:10.865Z,941.25
2023-03-20T04:04:10.868Z,941.31
2023-03-20T04:05:10.792Z,941.30
2023-03-20T04:06:10.822Z,941.34
2023-03-20T04:07:10.782Z,941.35
2023-03-20T04:08:10.771Z,941.33
2023-03-20T04:09:10.858Z,941.34
2023-03-20T04:10:10.764Z,941.32
2023-03-20T04:11:10.753Z,941.37
2023-03-20T04:12:10.762Z,941.35
2023-03-20T04:13:10.735Z,941.34
2023-03-20T04:14:10.717Z,941.32
2023-03-20T04:15:10.731Z,941.36
2023-03-20T04:16:10.727Z,941.35
2023-03-20T04:17:15.461Z,941.38
2023-03-20T04:18:10.667Z,941.36
2023-03-20T04:19:10.668Z,941.37
2023-03-20T04:20:10.652Z,941.38
2023-03-20T04:21:10.647Z,941.31
2023-03-20T04:22:10.654Z,941.34
2023-03-20T04:23:10.609Z,941.33
2023-03-20T04:24:10.612Z,941.36
2023-03-20T04:25:10.634Z,941.38
2023-03-20T04:26:10.590Z,941.35
2023-03-20T04:27:10.617Z,941.35
2023-03-20T04:28:10.562Z,941.38
2023-03-20T04:29:10.563Z,941.38
2023-03-20T04:30:10.541Z,941.40
2023-03-20T04:31:10.635Z,941.44
2023-03-20T04:32:10.519Z,941.42
2023-03-20T04:33:10.602Z,941.43
2023-03-20T04:34:10.502Z,941.48
2023-03-20T04:35:10.487Z,941.43
2023-03-20T04:36:10.596Z,941.51
2023-03-20T04:37:10.518Z,941.51
2023-03-20T04:38:10.468Z,941.51
2023-03-20T04:39:10.549Z,941.54
2023-03-20T04:40:10.435Z,941.53
2023-03-20T04:41:10.444Z,941.56
2023-03-20T04:42:10.445Z,941.57
2023-03-20T04:43:10.517Z,941.60
2023-03-20T04:44:10.379Z,941.62
2023-03-20T04:45:10.386Z,941.58
2023-03-20T04:46:10.476Z,941.65
2023-03-20T04:47:14.974Z,941.62
2023-03-20T04:48:10.423Z,941.63
2023-03-20T04:49:10.348Z,941.63
2023-03-20T04:50:10.354Z,941.61
2023-03-20T04:51:10.324Z,941.62
2023-03-20T04:52:10.303Z,941.65
2023-03-20T04:53:10.294Z,941.63
2023-03-20T04:54:10.361Z,941.56
2023-03-20T04:55:10.272Z,941.59
2023-03-20T04:56:10.264Z,941.57
2023-03-20T04:57:10.257Z,941.61
2023-03-20T04:58:10.266Z,941.61
2023-03-20T04:59:10.242Z,941.62
2023-03-20T05:00:10.220Z,941.66
2023-03-20T05:01:10.309Z,941.67
2023-03-20T05:02:10.211Z,941.68
2023-03-20T05:03:10.286Z,941.70
2023-03-20T05:04:10.218Z,941.69
2023-03-20T05:05:10.177Z,941.65
2023-03-20T05:06:10.167Z,941.66
2023-03-20T05:07:10.165Z,941.68
2023-03-20T05:08:10.146Z,941.75
2023-03-20T05:09:10.170Z,941.75
2023-03-20T05:10:10.152Z,941.73
2023-03-20T05:11:10.149Z,941.74
2023-03-20T05:12:10.090Z,941.69
2023-03-20T05:13:10.127Z,941.73
2023-03-20T05:14:10.187Z,941.71
2023-03-20T05:15:10.061Z,941.74
2023-03-20T05:16:10.065Z,941.79
2023-03-20T05:17:21.248Z,941.73
2023-03-20T05:18:10.045Z,941.72
2023-03-20T05:19:10.078Z,941.76
2023-03-20T05:20:10.034Z,941.75
2023-03-20T05:21:10.066Z,941.75
2023-03-20T05:22:09.988Z,941.80
2023-03-20T05:23:10.035Z,941.81
2023-03-20T05:24:09.988Z,941.84
2023-03-20T05:25:09.990Z,941.82
2023-03-20T05:26:09.969Z,941.82
2023-03-20T05:27:09.975Z,941.78
2023-03-20T05:28:09.925Z,941.72
2023-03-20T05:29:09.988Z,941.79
2023-03-20T05:30:09.901Z,941.75
2023-03-20T05:31:10.039Z,941.80
2023-03-20T05:32:09.910Z,941.81
2023-03-20T05:33:09.972Z,941.82
2023-03-20T05:34:09.892Z,941.83
2023-03-20T05:35:09.922Z,941.87
2023-03-20T05:36:09.859Z,941.89
2023-03-20T05:37:09.844Z,941.92
2023-03-20T05:38:09.950Z,941.94
2023-03-20T05:39:10.060Z,941.97
2023-03-20T05:40:09.812Z,941.97
2023-03-20T05:41:09.807Z,941.96
2023-03-20T05:42:09.798Z,941.98
2023-03-20T05:43:09.774Z,942.00
2023-03-20T05:44:09.850Z,942.01
2023-03-20T05:45:09.810Z,942.05
2023-03-20T05:46:09.773Z,942.04
2023-03-20T05:47:09.731Z,942.03
2023-03-20T05:48:09.728Z,941.99
2023-03-20T05:49:09.782Z,942.01
2023-03-20T05:50:09.755Z,942.05
2023-03-20T05:51:09.728Z,942.06
2023-03-20T05:52:09.707Z,942.05
2023-03-20T05:53:09.659Z,942.01
2023-03-20T05:54:09.686Z,942.08
2023-03-20T05:55:09.636Z,942.04
2023-03-20T05:56:09.656Z,942.05
2023-03-20T05:57:09.662Z,942.05
2023-03-20T05:58:09.669Z,942.05
2023-03-20T05:59:09.698Z,942.03
2023-03-20T06:00:09.668Z,942.11
2023-03-20T06:01:09.594Z,942.11
2023-03-20T06:02:09.632Z,942.18
2023-03-20T06:03:09.563Z,942.19
2023-03-20T06:04:09.546Z,942.14
2023-03-20T06:05:09.567Z,942.18
2023-03-20T06:06:09.519Z,942.22
2023-03-20T06:07:09.550Z,942.20
2023-03-20T06:08:09.510Z,942.17
2023-03-20T06:09:09.504Z,942.19
2023-03-20T06:10:09.494Z,942.17
2023-03-20T06:11:09.502Z,942.11
2023-03-20T06:12:09.541Z,942.15
2023-03-20T06:13:09.689Z,942.12
2023-03-20T06:14:09.631Z,942.15
2023-03-20T06:15:09.438Z,942.16
2023-03-20T06:16:09.468Z,942.13
2023-03-20T06:17:09.453Z,942.12
2023-03-20T06:18:09.436Z,942.12
2023-03-20T06:19:09.518Z,942.13
2023-03-20T06:20:09.464Z,942.14
2023-03-20T06:21:09.537Z,942.12
2023-03-20T06:22:09.381Z,942.09
2023-03-20T06:23:09.341Z,942.10
2023-03-20T06:24:09.370Z,942.13
2023-03-20T06:25:09.479Z,942.03
2023-03-20T06:26:09.349Z,942.05
2023-03-20T06:27:09.427Z,942.04
2023-03-20T06:28:09.344Z,942.12
2023-03-20T06:29:09.300Z,942.01
2023-03-20T06:30:09.320Z,942.07
2023-03-20T06:31:09.328Z,942.08
2023-03-20T06:32:09.305Z,942.06
2023-03-20T06:33:09.323Z,942.09
2023-03-20T06:34:09.221Z,942.10
2023-03-20T06:35:09.960Z,942.16
2023-03-20T06:36:09.228Z,942.15
2023-03-20T06:37:09.268Z,942.15
2023-03-20T06:38:09.233Z,942.16
2023-03-20T06:39:09.183Z,942.14
2023-03-20T06:40:09.204Z,942.12
2023-03-20T06:41:09.171Z,942.16
2023-03-20T06:42:09.153Z,942.22
2023-03-20T06:43:09.165Z,942.20
2023-03-20T06:44:09.130Z,942.21
2023-03-20T06:45:09.108Z,942.16
2023-03-20T06:46:09.261Z,942.20
2023-03-20T06:47:20.154Z,942.22
2023-03-20T06:48:09.434Z,942.17
2023-03-20T06:49:09.060Z,942.25
2023-03-20T06:50:16.578Z,942.19
2023-03-20T06:51:09.063Z,942.25
2023-03-20T06:52:09.075Z,942.21
2023-03-20T06:53:09.028Z,942.22
2023-03-20T06:54:09.017Z,942.20
2023-03-20T06:55:09.022Z,942.20
2023-03-20T06:56:08.999Z,942.15
2023-03-20T06:57:09.018Z,942.19
2023-03-20T06:58:08.984Z,942.16
2023-03-20T06:59:08.984Z,942.22
2023-03-20T07:00:08.990Z,942.16
2023-03-20T07:01:08.929Z,942.20
2023-03-20T07:02:09.046Z,942.16
2023-03-20T07:03:08.927Z,942.16
2023-03-20T07:04:08.922Z,942.12
2023-03-20T07:05:08.997Z,942.16
2023-03-20T07:06:08.927Z,942.09
2023-03-20T07:07:08.902Z,942.10
2023-03-20T07:08:08.864Z,942.26
2023-03-20T07:09:08.905Z,942.19
2023-03-20T07:10:08.866Z,942.13
2023-03-20T07:11:08.870Z,942.12
2023-03-20T07:12:08.813Z,942.17
2023-03-20T07:13:08.808Z,942.11
2023-03-20T07:14:08.792Z,942.10
2023-03-20T07:15:08.789Z,942.18
2023-03-20T07:16:08.934Z,942.12
2023-03-20T07:17:08.797Z,942.15
2023-03-20T07:18:08.796Z,942.08
2023-03-20T07:19:08.754Z,942.04
2023-03-20T07:20:08.780Z,942.04
2023-03-20T07:21:08.715Z,942.07
2023-03-20T07:22:08.715Z,942.06
2023-03-20T07:23:08.834Z,942.09
2023-03-20T07:24:08.711Z,942.07
2023-03-20T07:25:08.674Z,942.02
2023-03-20T07:26:08.663Z,942.12
2023-03-20T07:27:08.762Z,942.08
2023-03-20T07:28:08.643Z,942.06
2023-03-20T07:29:08.645Z,942.10
2023-03-20T07:30:08.624Z,942.04
2023-03-20T07:31:08.724Z,942.04
2023-03-20T07:32:08.610Z,942.06
2023-03-20T07:33:08.659Z,942.10
2023-03-20T07:34:08.674Z,942.01
2023-03-20T07:35:08.599Z,941.98
2023-03-20T07:36:08.694Z,942.10
2023-03-20T07:37:08.687Z,942.08
2023-03-20T07:38:08.558Z,942.09
2023-03-20T07:39:08.570Z,942.13
2023-03-20T07:40:08.605Z,942.07
2023-03-20T07:41:08.548Z,942.14
2023-03-20T07:42:08.557Z,942.19
2023-03-20T07:43:08.584Z,942.21
2023-03-20T07:44:08.478Z,942.24
2023-03-20T07:45:08.453Z,942.23
2023-03-20T07:46:08.528Z,942.29
2023-03-20T07:47:08.499Z,942.26
2023-03-20T07:48:08.505Z,942.25
2023-03-20T07:49:08.425Z,942.31
2023-03-20T07:50:08.532Z,942.30
2023-03-20T07:51:08.441Z,942.30
2023-03-20T07:52:08.397Z,942.30
2023-03-20T07:53:08.429Z,942.30
2023-03-20T07:54:08.363Z,942.37
2023-03-20T07:55:08.475Z,942.35
2023-03-20T07:56:08.358Z,942.34
2023-03-20T07:57:08.318Z,942.31
2023-03-20T07:58:08.399Z,942.31
2023-03-20T07:59:08.311Z,942.34
2023-03-20T08:00:08.327Z,942.27
2023-03-20T08:01:08.306Z,942.31
2023-03-20T08:02:08.270Z,942.29
2023-03-20T08:03:08.397Z,942.28
2023-03-20T08:04:08.469Z,942.23
2023-03-20T08:05:08.250Z,942.23
2023-03-20T08:06:08.254Z,942.22
2023-03-20T08:07:08.221Z,942.19
2023-03-20T08:08:08.220Z,942.18
2023-03-20T08:09:08.243Z,942.20
2023-03-20T08:10:08.195Z,942.25
2023-03-20T08:11:08.203Z,942.25
2023-03-20T08:12:08.161Z,942.18
2023-03-20T08:13:08.159Z,942.19
2023-03-20T08:14:08.139Z,942.21
2023-03-20T08:15:08.607Z,942.26
2023-03-20T08:16:08.536Z,942.13
2023-03-20T08:17:23.255Z,942.12
2023-03-20T08:18:08.124Z,942.11
2023-03-20T08:19:08.124Z,942.11
2023-03-20T08:20:08.089Z,942.08
2023-03-20T08:21:08.121Z,942.17
2023-03-20T08:22:08.136Z,942.11
2023-03-20T08:23:08.090Z,942.14
2023-03-20T08:24:08.059Z,942.11
2023-03-20T08:25:08.055Z,942.15
2023-03-20T08:26:08.059Z,942.11
2023-03-20T08:27:08.062Z,942.09
2023-03-20T08:28:08.158Z,942.13
2023-03-20T08:29:08.222Z,942.09
2023-03-20T08:30:07.982Z,942.09
2023-03-20T08:31:08.041Z,942.13
2023-03-20T08:32:07.989Z,942.14
2023-03-20T08:33:08.046Z,942.13
2023-03-20T08:34:08.006Z,942.14
2023-03-20T08:35:10.602Z,942.14
2023-03-20T08:36:09.018Z,942.15
2023-03-20T08:37:08.017Z,942.20
2023-03-20T08:38:07.979Z,942.17
2023-03-20T08:39:07.896Z,942.14
2023-03-20T08:40:07.890Z,942.14
2023-03-20T08:41:07.949Z,942.16
2023-03-20T08:42:07.853Z,942.12
2023-03-20T08:43:07.847Z,942.15
2023-03-20T08:44:07.827Z,942.09
2023-03-20T08:45:07.834Z,942.11
2023-03-20T08:46:07.840Z,942.07
2023-03-20T08:47:07.871Z,942.04
2023-03-20T08:48:07.828Z,942.09
2023-03-20T08:49:07.841Z,942.05
2023-03-20T08:50:07.883Z,942.08
2023-03-20T08:51:07.764Z,942.04
2023-03-20T08:52:07.801Z,941.92
2023-03-20T08:53:07.738Z,941.91
2023-03-20T08:54:07.754Z,941.96
2023-03-20T08:55:07.693Z,941.98
2023-03-20T08:56:07.692Z,941.98
2023-03-20T08:57:07.690Z,941.97
2023-03-20T08:58:07.719Z,941.95
2023-03-20T08:59:07.664Z,942.00
2023-03-20T09:00:07.641Z,942.01
2023-03-20T09:01:07.674Z,941.96
2023-03-20T09:02:07.768Z,941.99
2023-03-20T09:03:07.651Z,941.90
2023-03-20T09:04:07.677Z,941.94
2023-03-20T09:05:07.634Z,942.02
2023-03-20T09:06:07.593Z,941.94
2023-03-20T09:07:07.655Z,941.85
2023-03-20T09:08:07.560Z,941.83
2023-03-20T09:09:07.545Z,941.86
2023-03-20T09:10:08.089Z,941.84
2023-03-20T09:12:28.390Z,942.03
2023-03-20T09:13:28.340Z,941.96
2023-03-20T09:14:28.330Z,942.02
2023-03-20T09:15:28.429Z,941.99
2023-03-20T09:16:28.350Z,942.00
2023-03-20T09:17:28.328Z,942.04
2023-03-20T09:18:28.300Z,942.06
2023-03-20T09:19:30.013Z,942.01
2023-03-20T09:20:28.263Z,942.05
2023-03-20T09:21:28.248Z,941.98
2023-03-20T09:22:28.274Z,941.98
2023-03-20T09:23:28.247Z,942.05
2023-03-20T09:24:28.224Z,942.04
2023-03-20T09:25:28.270Z,942.09
2023-03-20T09:26:28.202Z,942.13
2023-03-20T09:27:28.221Z,942.05
2023-03-20T09:28:28.172Z,942.25
2023-03-20T09:29:28.219Z,942.00
2023-03-20T09:30:28.161Z,941.98
2023-03-20T09:31:28.236Z,941.95
2023-03-20T09:32:28.174Z,942.04
2023-03-20T09:33:28.121Z,941.95
2023-03-20T09:34:28.123Z,941.94
2023-03-20T09:35:28.164Z,941.89
2023-03-20T09:36:28.100Z,941.90
2023-03-20T09:37:28.094Z,941.86
2023-03-20T09:38:28.159Z,941.78
2023-03-20T09:39:28.123Z,941.73
2023-03-20T09:40:28.037Z,941.84
2023-03-20T09:41:28.478Z,941.86
2023-03-20T09:42:28.036Z,941.71
2023-03-20T09:43:28.016Z,941.59
2023-03-20T09:44:28.093Z,941.60
2023-03-20T09:45:28.036Z,941.59
2023-03-20T09:46:28.100Z,941.53
2023-03-20T09:47:27.991Z,941.62
2023-03-20T09:48:27.989Z,941.47
2023-03-20T09:49:27.998Z,941.45
2023-03-20T09:50:27.935Z,941.51
2023-03-20T09:51:27.936Z,941.45
2023-03-20T09:52:27.919Z,941.45
2023-03-20T09:53:27.958Z,941.43
2023-03-20T09:54:27.968Z,941.50
2023-03-20T09:55:27.992Z,941.50
2023-03-20T09:56:27.891Z,941.56
2023-03-20T09:57:27.905Z,941.36
2023-03-20T09:58:27.842Z,941.46
2023-03-20T09:59:27.872Z,941.55
2023-03-20T10:00:27.877Z,941.57
2023-03-20T10:01:27.990Z,941.46
2023-03-20T10:02:27.839Z,941.52
2023-03-20T10:03:27.824Z,941.42
2023-03-20T10:04:27.814Z,941.48
2023-03-20T10:05:27.804Z,941.49
2023-03-20T10:06:27.771Z,941.47
2023-03-20T10:07:27.802Z,941.50
2023-03-20T10:08:27.749Z,941.53
2023-03-20T10:09:27.752Z,941.50
2023-03-20T10:10:27.763Z,941.48
2023-03-20T10:11:27.797Z,941.48
2023-03-20T10:12:27.755Z,941.45
2023-03-20T10:13:35.213Z,941.50
2023-03-20T10:14:27.700Z,941.48
2023-03-20T10:15:27.670Z,941.45
2023-03-20T10:16:27.779Z,941.46
2023-03-20T10:17:27.659Z,941.49
2023-03-20T10:18:27.640Z,941.50
2023-03-20T10:19:27.658Z,941.51
2023-03-20T10:20:27.650Z,941.58
2023-03-20T10:21:27.607Z,941.51
2023-03-20T10:22:27.627Z,941.55
2023-03-20T10:23:27.635Z,941.51
2023-03-20T10:24:27.582Z,941.27
2023-03-20T10:25:27.566Z,941.30
2023-03-20T10:26:27.590Z,941.35
2023-03-20T10:27:28.396Z,941.58
2023-03-20T10:28:27.549Z,941.40
2023-03-20T10:29:27.565Z,941.48
2023-03-20T10:30:27.524Z,941.39
2023-03-20T10:31:27.563Z,941.42
2023-03-20T10:32:27.477Z,941.50
2023-03-20T10:33:27.512Z,941.37
2023-03-20T10:34:27.462Z,941.41
2023-03-20T10:35:27.465Z,941.46
2023-03-20T10:36:27.437Z,941.45
2023-03-20T10:37:27.489Z,941.47
2023-03-20T10:38:27.435Z,941.41
2023-03-20T10:39:27.441Z,941.69
2023-03-20T10:40:27.400Z,941.40
2023-03-20T10:41:27.384Z,941.58
2023-03-20T10:42:27.425Z,941.36
2023-03-20T10:43:27.372Z,941.53
2023-03-20T10:44:27.367Z,941.51
2023-03-20T10:45:27.369Z,941.49
2023-03-20T10:46:27.489Z,941.47
2023-03-20T10:47:27.382Z,941.42
2023-03-20T10:48:27.375Z,941.33
2023-03-20T10:49:27.300Z,941.32
2023-03-20T10:50:27.295Z,941.28
2023-03-20T10:51:27.316Z,941.23
2023-03-20T10:52:27.282Z,941.17
2023-03-20T10:53:27.259Z,941.18
2023-03-20T10:54:27.267Z,941.17
2023-03-20T10:55:27.349Z,941.13
2023-03-20T10:56:27.254Z,941.04
2023-03-20T10:57:27.322Z,941.03
2023-03-20T10:58:27.220Z,941.01
2023-03-20T10:59:27.268Z,940.91
2023-03-20T11:00:27.222Z,940.91
2023-03-20T11:01:27.303Z,940.79
2023-03-20T11:02:27.183Z,940.92
2023-03-20T11:03:27.194Z,940.81
2023-03-20T11:04:27.200Z,940.64
2023-03-20T11:05:27.177Z,940.67
2023-03-20T11:06:27.141Z,940.64
2023-03-20T11:07:27.138Z,940.45
2023-03-20T11:08:27.149Z,940.45
2023-03-20T11:09:27.156Z,940.63
2023-03-20T11:10:27.095Z,940.81
2023-03-20T11:11:27.113Z,940.75
2023-03-20T11:12:27.061Z,940.82
2023-03-20T11:13:27.154Z,940.96
2023-03-20T11:14:27.052Z,940.93
2023-03-20T11:15:27.054Z,940.83
2023-03-20T11:16:27.099Z,940.69
2023-03-20T11:17:27.063Z,940.86
2023-03-20T11:18:27.002Z,940.51
2023-03-20T11:19:27.052Z,940.62
2023-03-20T11:20:27.024Z,940.46
2023-03-20T11:21:26.973Z,940.46
2023-03-20T11:22:27.003Z,940.45
2023-03-20T11:23:27.048Z,940.47
2023-03-20T11:24:26.974Z,940.50
2023-03-20T11:25:26.970Z,940.52
2023-03-20T11:26:26.994Z,940.49
2023-03-20T11:27:26.934Z,940.49
2023-03-20T11:28:26.969Z,940.57
2023-03-20T11:29:26.913Z,940.58
2023-03-20T11:30:27.007Z,940.51
2023-03-20T11:31:26.913Z,940.59
2023-03-20T11:32:27.000Z,940.55
2023-03-20T11:33:26.934Z,940.55
2023-03-20T11:34:26.872Z,940.56
2023-03-20T11:35:26.923Z,940.54
2023-03-20T11:36:28.202Z,940.63
2023-03-20T11:37:26.822Z,940.64
2023-03-20T11:38:26.791Z,940.67
2023-03-20T11:39:26.892Z,940.71
2023-03-20T11:40:26.792Z,940.68
2023-03-20T11:41:27.627Z,940.71
2023-03-20T11:42:26.813Z,940.70
2023-03-20T11:43:26.757Z,940.72
2023-03-20T11:44:26.724Z,940.78
2023-03-20T11:45:26.734Z,940.71
2023-03-20T11:46:26.789Z,940.77
2023-03-20T11:47:26.803Z,940.80
2023-03-20T11:48:26.738Z,940.76
2023-03-20T11:49:26.695Z,940.79
2023-03-20T11:50:26.692Z,940.76
2023-03-20T11:51:26.659Z,940.78
2023-03-20T11:52:26.749Z,940.78
2023-03-20T11:53:26.750Z,940.75
2023-03-20T11:54:26.618Z,940.78
2023-03-20T11:55:26.666Z,940.80
2023-03-20T11:56:26.665Z,940.83
2023-03-20T11:57:26.606Z,940.83
2023-03-20T11:58:26.616Z,940.82
2023-03-20T11:59:26.572Z,940.85
2023-03-20T12:00:26.567Z,940.80
2023-03-20T12:01:26.701Z,940.86
2023-03-20T12:02:26.596Z,940.81
2023-03-20T12:05:23.846Z,940.84
2023-03-20T12:06:23.804Z,940.67
2023-03-20T12:07:23.844Z,940.74
2023-03-20T12:08:23.782Z,940.79
2023-03-20T12:09:23.798Z,940.79
2023-03-20T12:10:23.770Z,940.84
2023-03-20T12:11:23.957Z,940.80
2023-03-20T12:12:23.786Z,940.89
2023-03-20T12:13:23.757Z,940.87
2023-03-20T12:14:23.739Z,940.87
2023-03-20T12:15:23.760Z,940.88
2023-03-20T12:16:24.497Z,940.83
2023-03-20T12:17:23.714Z,940.64
2023-03-20T12:18:23.675Z,940.74
2023-03-20T12:19:23.746Z,940.86
2023-03-20T12:20:23.859Z,940.77
2023-03-20T12:21:23.711Z,940.81
2023-03-20T12:22:23.748Z,940.71
2023-03-20T12:23:23.620Z,940.70
2023-03-20T12:24:23.649Z,940.68
2023-03-20T12:25:23.605Z,940.69
2023-03-20T12:26:23.614Z,940.56
2023-03-20T12:27:23.613Z,940.53
2023-03-20T12:28:23.582Z,940.56
2023-03-20T12:29:23.619Z,940.46
2023-03-20T12:30:23.734Z,940.45
2023-03-20T12:31:23.656Z,940.43